createdAt,value
2018-07-25T00:01:19.476Z,26.13
2018-07-25T00:03:45.445Z,26.11
2018-07-25T00:06:11.439Z,26.12
2018-07-25T00:08:37.404Z,26.09
2018-07-25T00:11:03.353Z,26.12
2018-07-25T00:13:29.344Z,26.12
2018-07-25T00:15:55.284Z,26.13
2018-07-25T00:18:21.248Z,26.09
2018-07-25T00:20:47.210Z,26.12
2018-07-25T00:23:13.167Z,26.11
2018-07-25T00:25:39.125Z,26.09
2018-07-25T00:28:05.073Z,26.08
2018-07-25T00:30:31.024Z,26.09
2018-07-25T00:32:57.015Z,26.07
2018-07-25T00:35:22.969Z,26.05
2018-07-25T00:37:48.952Z,26.21
2018-07-25T00:40:14.923Z,26.12
2018-07-25T00:42:40.887Z,26.07
2018-07-25T00:45:06.873Z,26.01
2018-07-25T00:47:32.816Z,26.07
2018-07-25T00:49:58.792Z,26.03
2018-07-25T00:52:24.770Z,26.09
2018-07-25T00:54:50.734Z,26.06
2018-07-25T00:57:16.693Z,26.05
2018-07-25T00:59:42.678Z,26.02
2018-07-25T01:02:08.622Z,26.00
2018-07-25T01:04:34.583Z,26.06
2018-07-25T01:07:00.555Z,26.11
2018-07-25T01:09:26.513Z,26.12
2018-07-25T01:11:52.461Z,26.10
2018-07-25T01:14:18.424Z,26.09
2018-07-25T01:16:44.390Z,26.03
2018-07-25T01:19:10.361Z,26.09
2018-07-25T01:21:36.352Z,26.01
2018-07-25T01:24:02.331Z,26.08
2018-07-25T01:26:28.344Z,26.04
2018-07-25T01:28:54.299Z,26.09
2018-07-25T01:31:20.284Z,26.11
2018-07-25T01:33:46.240Z,26.02
2018-07-25T01:36:12.212Z,26.05
2018-07-25T01:38:38.151Z,26.07
2018-07-25T01:41:04.095Z,26.08
2018-07-25T01:43:30.073Z,26.11
2018-07-25T01:45:56.125Z,26.10
2018-07-25T01:48:22.081Z,26.11
2018-07-25T01:50:48.049Z,26.09
2018-07-25T01:53:14.040Z,26.02
2018-07-25T01:55:40.016Z,26.03
2018-07-25T01:58:05.980Z,26.04
2018-07-25T02:00:31.924Z,26.04
2018-07-25T02:02:57.871Z,26.04
2018-07-25T02:05:23.815Z,26.05
2018-07-25T02:07:49.816Z,26.04
2018-07-25T02:10:15.791Z,25.98
2018-07-25T02:12:41.762Z,26.02
2018-07-25T02:15:07.725Z,26.03
2018-07-25T02:17:33.676Z,26.04
2018-07-25T02:19:59.631Z,26.06
2018-07-25T02:22:25.595Z,26.04
2018-07-25T02:24:51.567Z,26.05
2018-07-25T02:27:17.527Z,26.05
2018-07-25T02:29:43.662Z,26.09
2018-07-25T02:32:09.620Z,26.03
2018-07-25T02:34:35.575Z,25.97
2018-07-25T02:37:01.555Z,26.00
2018-07-25T02:39:27.515Z,25.98
2018-07-25T02:41:53.500Z,25.98
2018-07-25T02:44:19.471Z,25.99
2018-07-25T02:46:45.428Z,26.00
2018-07-25T02:49:11.440Z,26.03
2018-07-25T02:51:37.407Z,26.03
2018-07-25T02:54:03.373Z,26.03
2018-07-25T02:56:29.341Z,26.07
2018-07-25T02:58:55.296Z,26.03
2018-07-25T03:01:21.266Z,25.96
2018-07-25T03:03:47.260Z,25.96
2018-07-25T03:06:13.211Z,25.97
2018-07-25T03:08:39.190Z,25.97
2018-07-25T03:11:05.131Z,25.97
2018-07-25T03:13:31.088Z,25.91
2018-07-25T03:15:57.053Z,25.93
2018-07-25T03:18:23.030Z,25.96
2018-07-25T03:20:48.983Z,26.00
2018-07-25T03:23:14.999Z,25.99
2018-07-25T03:25:40.958Z,25.96
2018-07-25T03:28:06.912Z,25.99
2018-07-25T03:30:32.864Z,25.93
2018-07-25T03:32:58.820Z,25.98
2018-07-25T03:35:24.776Z,26.02
2018-07-25T03:37:50.732Z,26.00
2018-07-25T03:40:16.697Z,26.04
2018-07-25T03:42:42.655Z,26.01
2018-07-25T03:45:08.640Z,26.01
2018-07-25T03:47:34.611Z,26.00
2018-07-25T03:50:00.595Z,26.01
2018-07-25T03:52:26.555Z,25.99
2018-07-25T03:54:52.505Z,25.98
2018-07-25T03:57:18.471Z,25.97
2018-07-25T03:59:44.444Z,25.93
2018-07-25T04:02:10.407Z,25.98
2018-07-25T04:04:36.381Z,25.98
2018-07-25T04:07:02.329Z,25.94
2018-07-25T04:09:28.287Z,25.93
2018-07-25T04:11:54.245Z,25.92
2018-07-25T04:14:20.222Z,25.92
2018-07-25T04:16:46.176Z,25.93
2018-07-25T04:19:12.180Z,25.92
2018-07-25T04:21:38.133Z,25.94
2018-07-25T04:24:04.104Z,25.91
2018-07-25T04:26:30.109Z,25.89
2018-07-25T04:28:56.075Z,25.86
2018-07-25T04:31:22.029Z,25.95
2018-07-25T04:33:48.023Z,25.89
2018-07-25T04:36:13.988Z,25.89
2018-07-25T04:38:39.970Z,25.92
2018-07-25T04:41:05.948Z,25.90
2018-07-25T04:43:31.933Z,25.92
2018-07-25T04:45:57.928Z,25.95
2018-07-25T04:48:23.900Z,25.93
2018-07-25T04:50:49.908Z,25.93
2018-07-25T04:53:15.889Z,25.93
2018-07-25T04:55:41.865Z,25.93
2018-07-25T04:58:07.810Z,25.90
2018-07-25T05:00:33.776Z,25.99
2018-07-25T05:02:59.771Z,25.96
2018-07-25T05:05:25.724Z,25.95
2018-07-25T05:07:51.691Z,25.97
2018-07-25T05:10:17.705Z,25.96
2018-07-25T05:12:43.675Z,25.99
2018-07-25T05:15:09.635Z,26.00
2018-07-25T05:17:35.641Z,25.98
2018-07-25T05:20:01.622Z,25.94
2018-07-25T05:22:27.652Z,25.98
2018-07-25T05:24:53.665Z,26.02
2018-07-25T05:27:19.628Z,25.99
2018-07-25T05:29:45.590Z,26.00
2018-07-25T05:32:11.652Z,26.05
2018-07-25T05:34:37.684Z,25.96
2018-07-25T05:37:03.643Z,25.97
2018-07-25T05:39:29.645Z,26.06
2018-07-25T05:41:55.674Z,26.05
2018-07-25T05:44:21.640Z,26.08
2018-07-25T05:46:47.636Z,26.05
2018-07-25T05:49:13.597Z,26.09
2018-07-25T05:51:39.555Z,26.09
2018-07-25T05:54:05.522Z,26.07
2018-07-25T05:56:31.482Z,25.89
2018-07-25T05:58:57.441Z,25.85
2018-07-25T06:01:23.417Z,25.89
2018-07-25T06:03:49.422Z,25.88
2018-07-25T06:06:15.429Z,25.85
2018-07-25T06:08:41.418Z,25.90
2018-07-25T06:11:07.369Z,25.87
2018-07-25T06:13:33.501Z,25.92
2018-07-25T06:15:59.459Z,26.04
2018-07-25T06:18:25.426Z,25.95
2018-07-25T06:20:51.395Z,25.92
2018-07-25T06:23:18.339Z,25.90
2018-07-25T06:25:44.303Z,25.84
2018-07-25T06:28:10.296Z,25.92
2018-07-25T06:30:36.271Z,25.93
2018-07-25T06:33:02.229Z,25.87
2018-07-25T06:35:28.337Z,25.91
2018-07-25T06:37:54.326Z,25.93
2018-07-25T06:40:20.265Z,25.91
2018-07-25T06:42:46.244Z,25.88
2018-07-25T06:45:12.200Z,26.00
2018-07-25T06:47:38.166Z,25.99
2018-07-25T06:50:04.148Z,26.05
2018-07-25T06:52:30.111Z,25.95
2018-07-25T06:54:56.081Z,25.95
2018-07-25T06:57:22.144Z,26.13
2018-07-25T06:59:48.062Z,26.21
2018-07-25T07:02:14.024Z,26.17
2018-07-25T07:04:40.002Z,26.03
2018-07-25T07:07:05.975Z,26.02
2018-07-25T07:09:32.003Z,26.02
2018-07-25T07:11:58.019Z,26.05
2018-07-25T07:14:23.917Z,26.05
2018-07-25T07:16:49.876Z,26.24
2018-07-25T07:19:15.840Z,26.24
2018-07-25T07:21:41.808Z,26.32
2018-07-25T07:24:07.836Z,26.15
2018-07-25T07:26:33.748Z,26.22
2018-07-25T07:28:59.728Z,26.32
2018-07-25T07:31:25.698Z,26.15
2018-07-25T07:33:51.643Z,26.19
2018-07-25T07:36:17.602Z,26.24
2018-07-25T07:38:43.590Z,26.34
2018-07-25T07:41:09.584Z,26.21
2018-07-25T07:43:35.599Z,26.23
2018-07-25T07:46:01.565Z,26.17
2018-07-25T07:48:27.534Z,26.24
2018-07-25T07:50:53.503Z,26.28
2018-07-25T07:53:19.465Z,26.30
2018-07-25T07:55:45.461Z,26.25
2018-07-25T07:58:11.455Z,26.21
2018-07-25T08:00:37.438Z,26.27
2018-07-25T08:03:03.406Z,26.29
2018-07-25T08:05:29.418Z,26.28
2018-07-25T08:07:55.521Z,26.24
2018-07-25T08:10:21.496Z,26.43
2018-07-25T08:12:47.494Z,26.28
2018-07-25T08:15:13.552Z,26.39
2018-07-25T08:17:39.558Z,26.35
2018-07-25T08:20:05.540Z,26.32
2018-07-25T08:22:31.648Z,26.42
2018-07-25T08:24:57.667Z,26.28
2018-07-25T08:27:23.953Z,26.36
2018-07-25T08:29:49.903Z,26.52
2018-07-25T08:32:15.895Z,26.51
2018-07-25T08:34:41.908Z,26.46
2018-07-25T08:37:07.926Z,26.38
2018-07-25T08:39:33.873Z,26.40
2018-07-25T08:41:59.878Z,26.33
2018-07-25T08:44:25.895Z,26.43
2018-07-25T08:46:51.909Z,26.38
2018-07-25T08:49:18.015Z,26.35
2018-07-25T08:51:44.028Z,26.40
2018-07-25T08:54:09.999Z,26.35
2018-07-25T08:56:35.970Z,26.35
2018-07-25T08:59:01.947Z,26.48
2018-07-25T09:01:27.905Z,26.51
2018-07-25T09:03:53.891Z,26.56
2018-07-25T09:06:19.902Z,26.61
2018-07-25T09:08:45.835Z,26.46
2018-07-25T09:11:11.815Z,26.40
2018-07-25T09:13:37.782Z,26.40
2018-07-25T09:16:03.762Z,26.60
2018-07-25T09:18:29.805Z,26.57
2018-07-25T09:20:55.775Z,26.52
2018-07-25T09:23:21.764Z,26.56
2018-07-25T09:25:47.735Z,26.44
2018-07-25T09:28:14.933Z,26.47
2018-07-25T09:30:40.938Z,26.58
2018-07-25T09:33:07.590Z,26.52
2018-07-25T09:35:33.622Z,26.56
2018-07-25T09:37:59.713Z,26.54
2018-07-25T09:40:25.720Z,26.52
2018-07-25T09:42:51.729Z,26.55
2018-07-25T09:45:17.818Z,26.57
2018-07-25T09:47:43.769Z,26.62
2018-07-25T09:50:09.742Z,26.58
2018-07-25T09:52:35.856Z,26.52
2018-07-25T09:55:01.890Z,26.59
2018-07-25T09:57:27.856Z,26.58
2018-07-25T09:59:53.843Z,26.59
2018-07-25T10:02:19.799Z,26.54
2018-07-25T10:04:45.842Z,26.66
2018-07-25T10:07:12.004Z,26.60
2018-07-25T10:09:37.994Z,26.67
2018-07-25T10:12:03.953Z,26.70
2018-07-25T10:14:29.944Z,26.60
2018-07-25T10:16:56.117Z,26.69
2018-07-25T10:19:22.207Z,26.56
2018-07-25T10:21:48.183Z,26.54
2018-07-25T10:24:14.155Z,26.54
2018-07-25T10:26:40.164Z,26.52
2018-07-25T10:29:06.149Z,26.59
2018-07-25T10:31:32.137Z,26.54
2018-07-25T10:33:58.127Z,26.70
2018-07-25T10:36:24.196Z,26.67
2018-07-25T10:38:50.368Z,26.68
2018-07-25T10:41:16.310Z,26.78
2018-07-25T10:43:42.279Z,26.70
2018-07-25T10:46:08.256Z,26.63
2018-07-25T10:48:34.259Z,26.56
2018-07-25T10:51:00.249Z,26.62
2018-07-25T10:53:26.255Z,26.66
2018-07-25T10:55:53.260Z,26.66
2018-07-25T10:58:19.181Z,26.67
2018-07-25T11:00:45.132Z,26.65
2018-07-25T11:03:11.100Z,26.57
2018-07-25T11:05:37.106Z,26.52
2018-07-25T11:08:03.058Z,26.63
2018-07-25T11:10:29.030Z,26.56
2018-07-25T11:12:54.981Z,26.63
2018-07-25T11:15:20.993Z,26.61
2018-07-25T11:17:46.951Z,26.58
2018-07-25T11:23:09.784Z,26.63
2018-07-25T11:25:35.677Z,26.60
2018-07-25T11:28:01.640Z,26.56
2018-07-25T11:30:27.608Z,26.56
2018-07-25T11:32:53.627Z,26.55
2018-07-25T11:35:19.535Z,26.57
2018-07-25T11:37:45.585Z,26.62
2018-07-25T11:40:11.555Z,26.65
2018-07-25T11:42:37.547Z,26.64
2018-07-25T11:45:03.497Z,26.65
2018-07-25T11:47:29.483Z,26.63
2018-07-25T11:49:55.437Z,26.60
2018-07-25T11:52:21.470Z,26.60
2018-07-25T11:54:47.455Z,26.58
2018-07-25T11:57:13.441Z,26.61
2018-07-25T11:59:39.397Z,26.66
2018-07-25T12:02:05.372Z,26.73
2018-07-25T12:04:31.327Z,26.68
2018-07-25T12:06:57.293Z,26.64
2018-07-25T12:09:23.355Z,26.66
2018-07-25T12:11:49.323Z,26.73
2018-07-25T12:14:15.298Z,26.72
2018-07-25T12:16:41.348Z,26.69
2018-07-25T12:19:07.323Z,26.76
2018-07-25T12:21:33.375Z,26.78
2018-07-25T12:23:59.357Z,26.78
2018-07-25T12:26:25.361Z,26.72
2018-07-25T12:28:51.307Z,26.92
2018-07-25T12:31:18.352Z,26.83
2018-07-25T12:33:44.380Z,26.69
2018-07-25T12:36:10.397Z,26.69
2018-07-25T12:38:37.462Z,26.70
2018-07-25T12:41:03.556Z,26.76
2018-07-25T12:43:29.512Z,26.77
2018-07-25T12:45:55.483Z,26.77
2018-07-25T12:48:21.612Z,26.71
2018-07-25T12:50:47.527Z,26.64
2018-07-25T12:53:13.521Z,26.67
2018-07-25T12:55:39.603Z,26.84
2018-07-25T13:00:37.866Z,26.78
2018-07-25T13:03:03.829Z,26.90
2018-07-25T13:05:29.813Z,26.89
2018-07-25T13:07:55.768Z,26.98
2018-07-25T13:10:21.731Z,26.91
2018-07-25T13:12:47.702Z,26.81
2018-07-25T13:15:13.675Z,26.91
2018-07-25T13:17:39.660Z,26.91
2018-07-25T13:20:05.629Z,26.83
2018-07-25T13:22:31.635Z,26.88
2018-07-25T13:24:58.067Z,26.85
2018-07-25T13:27:24.025Z,26.78
2018-07-25T13:29:50.096Z,26.73
2018-07-25T13:32:16.132Z,26.73
2018-07-25T13:34:42.132Z,26.84
2018-07-25T13:37:08.131Z,26.83
2018-07-25T13:39:34.074Z,26.82
2018-07-25T13:42:00.034Z,26.86
2018-07-25T13:44:25.998Z,26.82
2018-07-25T13:46:51.956Z,26.91
2018-07-25T13:49:17.944Z,26.91
2018-07-25T13:51:43.923Z,26.88
2018-07-25T13:54:09.918Z,26.92
2018-07-25T13:56:35.900Z,26.84
2018-07-25T13:59:01.889Z,26.80
2018-07-25T14:01:27.877Z,26.79
2018-07-25T14:03:53.867Z,26.77
2018-07-25T14:06:19.863Z,26.88
2018-07-25T14:08:45.833Z,26.76
2018-07-25T14:11:11.833Z,26.94
2018-07-25T14:13:37.820Z,26.81
2018-07-25T14:16:03.793Z,26.76
2018-07-25T14:18:29.857Z,26.76
2018-07-25T14:20:55.892Z,26.79
2018-07-25T14:23:21.849Z,26.83
2018-07-25T14:25:47.832Z,26.83
2018-07-25T14:28:13.805Z,26.82
2018-07-25T14:30:39.820Z,26.83
2018-07-25T14:33:05.744Z,27.00
2018-07-25T14:35:31.761Z,26.90
2018-07-25T14:37:57.781Z,26.81
2018-07-25T14:40:23.859Z,26.80
2018-07-25T14:42:49.707Z,26.90
2018-07-25T14:45:15.665Z,26.87
2018-07-25T14:47:41.635Z,26.95
2018-07-25T14:50:07.679Z,26.85
2018-07-25T14:52:33.779Z,26.87
2018-07-25T14:54:59.739Z,26.85
2018-07-25T14:57:25.743Z,26.91
2018-07-25T14:59:51.733Z,26.88
2018-07-25T15:02:17.710Z,26.86
2018-07-25T15:04:43.666Z,26.85
2018-07-25T15:07:09.664Z,26.94
2018-07-25T15:09:35.628Z,26.84
2018-07-25T15:12:01.599Z,26.89
2018-07-25T15:14:27.555Z,26.88
2018-07-25T15:16:53.527Z,26.81
2018-07-25T15:19:19.493Z,26.86
2018-07-25T15:21:45.486Z,26.78
2018-07-25T15:24:11.513Z,26.84
2018-07-25T15:26:37.483Z,26.77
2018-07-25T15:29:03.488Z,26.79
2018-07-25T15:31:29.496Z,26.78
2018-07-25T15:33:55.500Z,26.81
2018-07-25T15:36:21.487Z,26.77
2018-07-25T15:38:47.497Z,26.81
2018-07-25T15:41:13.423Z,26.82
2018-07-25T15:43:39.381Z,26.88
2018-07-25T15:46:05.393Z,26.79
2018-07-25T15:48:31.347Z,26.83
2018-07-25T15:50:57.330Z,26.94
2018-07-25T15:53:23.293Z,26.80
2018-07-25T15:55:49.263Z,26.84
2018-07-25T15:58:15.234Z,26.87
2018-07-25T16:00:41.205Z,26.85
2018-07-25T16:03:07.158Z,26.79
2018-07-25T16:05:33.138Z,26.78
2018-07-25T16:07:59.120Z,26.75
2018-07-25T16:10:25.091Z,26.75
2018-07-25T16:12:51.077Z,26.74
2018-07-25T16:15:17.028Z,26.80
2018-07-25T16:17:43.015Z,26.78
2018-07-25T16:20:08.979Z,26.82
2018-07-25T16:22:34.944Z,26.83
2018-07-25T16:25:00.933Z,26.84
2018-07-25T16:27:26.906Z,26.86
2018-07-25T16:29:52.867Z,26.80
2018-07-25T16:32:18.830Z,26.86
2018-07-25T16:34:44.776Z,26.79
2018-07-25T16:37:10.739Z,26.81
2018-07-25T16:39:36.705Z,26.75
2018-07-25T16:42:02.681Z,26.79
2018-07-25T16:44:28.646Z,26.80
2018-07-25T16:46:54.607Z,26.79
2018-07-25T16:49:20.583Z,26.77
2018-07-25T16:51:46.598Z,26.78
2018-07-25T16:54:12.572Z,26.70
2018-07-25T16:56:38.621Z,26.69
2018-07-25T16:59:04.536Z,26.72
2018-07-25T17:01:30.512Z,26.72
2018-07-25T17:03:56.480Z,26.75
2018-07-25T17:06:22.444Z,26.78
2018-07-25T17:08:48.423Z,26.83
2018-07-25T17:11:14.565Z,26.81
2018-07-25T17:13:40.546Z,26.87
2018-07-25T17:16:06.532Z,26.83
2018-07-25T17:18:32.531Z,26.79
2018-07-25T17:20:58.523Z,26.82
2018-07-25T17:23:24.521Z,26.82
2018-07-25T17:25:50.491Z,26.76
2018-07-25T17:28:16.468Z,26.77
2018-07-25T17:30:42.461Z,26.78
2018-07-25T17:33:08.430Z,26.72
2018-07-25T17:35:34.408Z,26.82
2018-07-25T17:38:00.376Z,26.87
2018-07-25T17:40:26.360Z,26.84
2018-07-25T17:42:52.492Z,26.87
2018-07-25T17:45:18.448Z,26.87
2018-07-25T17:47:44.420Z,26.76
2018-07-25T17:50:10.393Z,26.77
2018-07-25T17:52:36.411Z,26.76
2018-07-25T17:55:02.412Z,26.78
2018-07-25T17:57:28.401Z,26.79
2018-07-25T17:59:54.384Z,26.83
2018-07-25T18:02:20.454Z,26.78
2018-07-25T18:04:46.430Z,26.83
2018-07-25T18:07:13.182Z,26.79
2018-07-25T18:09:39.146Z,26.84
2018-07-25T18:12:05.120Z,26.78
2018-07-25T18:14:31.180Z,26.87
2018-07-25T18:16:57.170Z,26.86
2018-07-25T18:19:23.127Z,26.81
2018-07-25T18:21:49.108Z,26.74
2018-07-25T18:24:15.082Z,26.77
2018-07-25T18:26:41.035Z,26.77
2018-07-25T18:29:07.018Z,26.83
2018-07-25T18:31:32.988Z,26.87
2018-07-25T18:33:59.025Z,26.83
2018-07-25T18:36:25.210Z,26.85
2018-07-25T18:38:51.251Z,26.78
2018-07-25T18:41:17.579Z,26.84
2018-07-25T18:43:43.672Z,26.95
2018-07-25T18:46:09.676Z,26.81
2018-07-25T18:48:35.867Z,26.85
2018-07-25T18:51:01.908Z,26.80
2018-07-25T18:53:27.993Z,26.88
2018-07-25T18:55:54.229Z,26.86
2018-07-25T18:58:20.284Z,26.82
2018-07-25T19:00:46.486Z,26.83
2018-07-25T19:03:12.754Z,26.81
2018-07-25T19:05:38.761Z,27.00
2018-07-25T19:08:04.871Z,27.01
2018-07-25T19:10:31.129Z,26.79
2018-07-25T19:12:57.382Z,26.87
2018-07-25T19:15:23.619Z,26.90
2018-07-25T19:17:49.852Z,26.87
2018-07-25T19:20:16.050Z,26.76
2018-07-25T19:22:42.335Z,26.83
2018-07-25T19:25:08.400Z,26.76
2018-07-25T19:27:34.656Z,26.70
2018-07-25T19:30:00.802Z,26.70
2018-07-25T19:32:26.976Z,26.76
2018-07-25T19:34:53.163Z,26.82
2018-07-25T19:37:19.360Z,26.72
2018-07-25T19:39:45.584Z,26.77
2018-07-25T19:42:11.607Z,26.70
2018-07-25T19:44:37.814Z,26.71
2018-07-25T19:47:03.825Z,26.69
2018-07-25T19:49:30.253Z,26.75
2018-07-25T19:51:56.289Z,26.72
2018-07-25T19:54:22.527Z,26.78
2018-07-25T19:56:48.541Z,26.77
2018-07-25T19:59:14.750Z,26.75
2018-07-25T20:01:41.016Z,26.75
2018-07-25T20:04:07.233Z,26.77
2018-07-25T20:06:33.238Z,26.75
2018-07-25T20:08:59.195Z,26.81
2018-07-25T20:11:25.431Z,26.77
2018-07-25T20:13:51.668Z,26.71
2018-07-25T20:16:17.925Z,26.75
2018-07-25T20:18:44.156Z,26.69
2018-07-25T20:21:10.388Z,26.76
2018-07-25T20:23:36.399Z,26.74
2018-07-25T20:26:02.464Z,26.82
2018-07-25T20:28:28.631Z,26.67
2018-07-25T20:30:54.641Z,26.66
2018-07-25T20:33:20.619Z,26.70
2018-07-25T20:35:46.782Z,26.73
2018-07-25T20:38:12.754Z,26.71
2018-07-25T20:40:38.720Z,26.73
2018-07-25T20:43:04.689Z,26.69
2018-07-25T20:45:31.771Z,26.85
2018-07-25T20:47:57.779Z,27.11
2018-07-25T20:50:23.747Z,26.98
2018-07-25T20:52:49.967Z,27.02
2018-07-25T20:55:16.183Z,26.98
2018-07-25T20:57:42.206Z,26.88
2018-07-25T21:00:08.269Z,26.89
2018-07-25T21:02:34.409Z,26.86
2018-07-25T21:05:00.483Z,26.97
2018-07-25T21:07:26.525Z,26.99
2018-07-25T21:09:52.510Z,26.85
2018-07-25T21:12:18.516Z,26.85
2018-07-25T21:14:44.535Z,26.86
2018-07-25T21:17:10.519Z,26.89
2018-07-25T21:19:36.483Z,26.82
2018-07-25T21:22:02.469Z,26.76
2018-07-25T21:24:28.413Z,26.92
2018-07-25T21:26:54.383Z,26.87
2018-07-25T21:29:20.406Z,26.86
2018-07-25T21:31:46.407Z,26.79
2018-07-25T21:34:12.457Z,26.83
2018-07-25T21:36:38.483Z,26.86
2018-07-25T21:39:04.508Z,26.92
2018-07-25T21:41:30.463Z,26.83
2018-07-25T21:43:56.451Z,26.80
2018-07-25T21:46:22.525Z,26.73
2018-07-25T21:48:48.526Z,26.79
2018-07-25T21:51:14.503Z,26.72
2018-07-25T21:53:40.482Z,26.75
2018-07-25T21:56:06.550Z,26.79
2018-07-25T21:58:32.495Z,26.79
2018-07-25T22:00:58.440Z,26.75
2018-07-25T22:03:24.401Z,26.77
2018-07-25T22:05:50.356Z,26.77
2018-07-25T22:08:16.312Z,26.74
2018-07-25T22:10:42.388Z,26.75
2018-07-25T22:13:08.389Z,26.71
2018-07-25T22:15:34.377Z,26.70
2018-07-25T22:18:00.389Z,26.73
2018-07-25T22:20:26.400Z,26.81
2018-07-25T22:22:52.376Z,26.88
2018-07-25T22:25:18.335Z,26.74
2018-07-25T22:27:44.317Z,26.76
2018-07-25T22:30:10.266Z,26.61
2018-07-25T22:32:37.674Z,26.57
2018-07-25T22:35:03.626Z,26.60
2018-07-25T22:37:29.797Z,26.62
2018-07-25T22:39:55.751Z,26.58
2018-07-25T22:42:21.707Z,26.59
2018-07-25T22:44:47.682Z,26.55
2018-07-25T22:47:13.647Z,26.57
2018-07-25T22:49:39.619Z,26.62
2018-07-25T22:52:05.674Z,26.55
2018-07-25T22:54:31.972Z,26.67
2018-07-25T22:56:57.961Z,26.57
2018-07-25T22:59:23.916Z,26.61
2018-07-25T23:01:49.864Z,26.60
2018-07-25T23:04:15.831Z,26.64
2018-07-25T23:06:41.871Z,26.60
2018-07-25T23:09:07.827Z,26.58
2018-07-25T23:11:33.892Z,26.53
2018-07-25T23:13:59.843Z,26.56
2018-07-25T23:16:25.812Z,26.53
2018-07-25T23:18:51.808Z,26.50
2018-07-25T23:21:17.762Z,26.50
2018-07-25T23:23:43.720Z,26.56
2018-07-25T23:26:09.751Z,26.55
2018-07-25T23:28:35.707Z,26.58
2018-07-25T23:31:01.682Z,26.54
2018-07-25T23:33:27.669Z,26.56
2018-07-25T23:35:53.634Z,26.55
2018-07-25T23:38:19.585Z,26.54
2018-07-25T23:40:45.582Z,26.55
2018-07-25T23:43:11.555Z,26.55
2018-07-25T23:45:37.531Z,26.56
2018-07-25T23:48:03.506Z,26.52
2018-07-25T23:50:29.479Z,26.53
2018-07-25T23:52:55.439Z,26.57
2018-07-25T23:55:21.379Z,26.51
2018-07-25T23:57:47.356Z,26.54
